sensor_id;sensor_type;location;lat;lon;timestamp;temperature;humidity
75517;DHT22;64097;52.548;13.406;2022-12-29T06:01:43;14.20;61.10
75517;DHT22;64097;52.548;13.406;2022-12-29T06:04:08;14.20;61.10
75517;DHT22;64097;52.548;13.406;2022-12-29T06:06:34;14.20;61.20
75517;DHT22;64097;52.548;13.406;2022-12-29T06:09:00;14.20;61.20
75517;DHT22;64097;52.548;13.406;2022-12-29T06:11:26;14.30;61.30
75517;DHT22;64097;52.548;13.406;2022-12-29T06:13:51;14.30;61.20
75517;DHT22;64097;52.548;13.406;2022-12-29T06:16:17;14.30;61.10
75517;DHT22;64097;52.548;13.406;2022-12-29T06:18:43;14.30;61.20
75517;DHT22;64097;52.548;13.406;2022-12-29T06:21:08;14.30;61.10
75517;DHT22;64097;52.548;13.406;2022-12-29T06:23:34;14.40;61.20
75517;DHT22;64097;52.548;13.406;2022-12-29T06:26:00;14.40;61.10
75517;DHT22;64097;52.548;13.406;2022-12-29T06:28:25;14.40;61.10
75517;DHT22;64097;52.548;13.406;2022-12-29T06:30:51;14.40;61.10
75517;DHT22;64097;52.548;13.406;2022-12-29T06:33:17;14.40;61.10
75517;DHT22;64097;52.548;13.406;2022-12-29T06:35:44;14.40;61.00
75517;DHT22;64097;52.548;13.406;2022-12-29T06:38:11;14.40;61.90
75517;DHT22;64097;52.548;13.406;2022-12-29T06:40:37;14.50;61.10
75517;DHT22;64097;52.548;13.406;2022-12-29T06:43:03;14.50;61.00
75517;DHT22;64097;52.548;13.406;2022-12-29T06:45:28;14.50;60.90
75517;DHT22;64097;52.548;13.406;2022-12-29T06:47:54;14.60;60.90
75517;DHT22;64097;52.548;13.406;2022-12-29T06:50:20;14.60;60.90
75517;DHT22;64097;52.548;13.406;2022-12-29T06:52:45;14.50;60.80
75517;DHT22;64097;52.548;13.406;2022-12-29T06:55:11;14.60;60.80
75517;DHT22;64097;52.548;13.406;2022-12-29T06:57:37;14.60;60.70
75517;DHT22;64097;52.548;13.406;2022-12-29T07:00:04;14.60;60.70
75517;DHT22;64097;52.548;13.406;2022-12-29T07:02:30;14.60;60.70
75517;DHT22;64097;52.548;13.406;2022-12-29T07:04:56;14.60;60.70
75517;DHT22;64097;52.548;13.406;2022-12-29T07:07:21;14.60;60.70
75517;DHT22;64097;52.548;13.406;2022-12-29T07:09:47;14.60;60.70
75517;DHT22;64097;52.548;13.406;2022-12-29T07:12:13;14.60;60.70
75517;DHT22;64097;52.548;13.406;2022-12-29T07:14:39;14.60;60.70
75517;DHT22;64097;52.548;13.406;2022-12-29T07:17:05;14.60;60.70
75517;DHT22;64097;52.548;13.406;2022-12-29T07:19:32;14.60;60.80
75517;DHT22;64097;52.548;13.406;2022-12-29T07:21:58;14.50;60.80
75517;DHT22;64097;52.548;13.406;2022-12-29T07:24:24;14.50;60.90
75517;DHT22;64097;52.548;13.406;2022-12-29T07:26:51;14.50;61.00
75517;DHT22;64097;52.548;13.406;2022-12-29T07:29:17;14.50;61.00
75517;DHT22;64097;52.548;13.406;2022-12-29T07:31:43;14.50;61.00
75517;DHT22;64097;52.548;13.406;2022-12-29T07:34:09;14.50;60.90
75517;DHT22;64097;52.548;13.406;2022-12-29T07:36:35;14.50;60.90
75517;DHT22;64097;52.548;13.406;2022-12-29T07:39:01;14.50;60.90
75517;DHT22;64097;52.548;13.406;2022-12-29T07:41:27;14.50;60.90
75517;DHT22;64097;52.548;13.406;2022-12-29T07:43:53;14.50;60.90
75517;DHT22;64097;52.548;13.406;2022-12-29T07:46:19;14.50;61.00
75517;DHT22;64097;52.548;13.406;2022-12-29T07:48:44;14.50;61.10
75517;DHT22;64097;52.548;13.406;2022-12-29T07:51:10;14.50;61.20
75517;DHT22;64097;52.548;13.406;2022-12-29T07:53:36;14.50;61.20
75517;DHT22;64097;52.548;13.406;2022-12-29T07:56:02;14.50;61.30
75517;DHT22;64097;52.548;13.406;2022-12-29T07:58:28;14.50;61.30
75517;DHT22;64097;52.548;13.406;2022-12-29T08:00:55;14.50;61.30
75517;DHT22;64097;52.548;13.406;2022-12-29T08:03:21;14.60;61.40
75517;DHT22;64097;52.548;13.406;2022-12-29T08:05:47;14.60;61.50
75517;DHT22;64097;52.548;13.406;2022-12-29T08:08:12;14.60;61.30
75517;DHT22;64097;52.548;13.406;2022-12-29T08:10:38;14.60;61.30
75517;DHT22;64097;52.548;13.406;2022-12-29T08:13:04;14.60;61.30
75517;DHT22;64097;52.548;13.406;2022-12-29T08:15:29;14.60;61.20
75517;DHT22;64097;52.548;13.406;2022-12-29T08:17:55;14.70;61.30
75517;DHT22;64097;52.548;13.406;2022-12-29T08:20:20;14.70;61.20
75517;DHT22;64097;52.548;13.406;2022-12-29T08:22:46;14.70;61.30
75517;DHT22;64097;52.548;13.406;2022-12-29T08:25:12;14.70;61.10
75517;DHT22;64097;52.548;13.406;2022-12-29T08:27:37;14.70;61.10
75517;DHT22;64097;52.548;13.406;2022-12-29T08:30:04;14.70;61.00
75517;DHT22;64097;52.548;13.406;2022-12-29T08:32:29;14.80;61.00
75517;DHT22;64097;52.548;13.406;2022-12-29T08:34:55;14.80;61.00
75517;DHT22;64097;52.548;13.406;2022-12-29T08:37:21;14.80;60.90
75517;DHT22;64097;52.548;13.406;2022-12-29T08:39:47;14.80;60.80
75517;DHT22;64097;52.548;13.406;2022-12-29T08:42:13;14.80;60.80
75517;DHT22;64097;52.548;13.406;2022-12-29T08:44:39;14.80;60.80
75517;DHT22;64097;52.548;13.406;2022-12-29T08:47:04;14.80;60.80
75517;DHT22;64097;52.548;13.406;2022-12-29T08:49:30;14.70;60.80
75517;DHT22;64097;52.548;13.406;2022-12-29T08:51:59;14.70;60.80
75517;DHT22;64097;52.548;13.406;2022-12-29T08:54:24;14.70;60.80
75517;DHT22;64097;52.548;13.406;2022-12-29T08:56:50;14.70;60.90
75517;DHT22;64097;52.548;13.406;2022-12-29T08:59:16;14.80;61.00
75517;DHT22;64097;52.548;13.406;2022-12-29T09:01:41;14.80;61.10
75517;DHT22;64097;52.548;13.406;2022-12-29T09:04:07;14.80;61.10
75517;DHT22;64097;52.548;13.406;2022-12-29T09:06:33;14.80;61.00
75517;DHT22;64097;52.548;13.406;2022-12-29T09:08:59;14.90;61.00
75517;DHT22;64097;52.548;13.406;2022-12-29T09:11:25;14.90;60.80
75517;DHT22;64097;52.548;13.406;2022-12-29T09:13:52;14.90;60.70
75517;DHT22;64097;52.548;13.406;2022-12-29T09:16:20;14.90;60.60
75517;DHT22;64097;52.548;13.406;2022-12-29T09:18:46;14.90;60.60
75517;DHT22;64097;52.548;13.406;2022-12-29T09:21:13;14.90;60.60
75517;DHT22;64097;52.548;13.406;2022-12-29T09:23:39;14.90;60.60
75517;DHT22;64097;52.548;13.406;2022-12-29T09:26:05;14.90;60.60
75517;DHT22;64097;52.548;13.406;2022-12-29T09:28:31;14.90;60.60
75517;DHT22;64097;52.548;13.406;2022-12-29T09:30:58;14.90;60.70
75517;DHT22;64097;52.548;13.406;2022-12-29T09:33:24;14.90;60.60
75517;DHT22;64097;52.548;13.406;2022-12-29T09:35:52;15.00;60.70
75517;DHT22;64097;52.548;13.406;2022-12-29T09:38:18;15.00;60.70
75517;DHT22;64097;52.548;13.406;2022-12-29T09:41:08;15.00;60.70
75517;DHT22;64097;52.548;13.406;2022-12-29T09:46:29;15.00;60.60
75517;DHT22;64097;52.548;13.406;2022-12-29T09:49:21;15.10;60.50
75517;DHT22;64097;52.548;13.406;2022-12-29T09:51:52;15.10;60.50
75517;DHT22;64097;52.548;13.406;2022-12-29T09:56:53;15.20;60.40
75517;DHT22;64097;52.548;13.406;2022-12-29T09:59:24;15.20;60.40
75517;DHT22;64097;52.548;13.406;2022-12-29T10:03:13;15.20;60.40
75517;DHT22;64097;52.548;13.406;2022-12-29T10:05:41;15.30;60.40
75517;DHT22;64097;52.548;13.406;2022-12-29T10:08:36;15.30;60.30
75517;DHT22;64097;52.548;13.406;2022-12-29T10:25:20;15.40;60.20
75517;DHT22;64097;52.548;13.406;2022-12-29T10:27:49;15.40;60.10
75517;DHT22;64097;52.548;13.406;2022-12-29T10:30:15;15.40;60.00
75517;DHT22;64097;52.548;13.406;2022-12-29T10:32:48;15.40;60.10
75517;DHT22;64097;52.548;13.406;2022-12-29T10:35:22;15.40;60.20
75517;DHT22;64097;52.548;13.406;2022-12-29T10:38:37;15.50;60.30
75517;DHT22;64097;52.548;13.406;2022-12-29T10:41:21;15.50;60.20
75517;DHT22;64097;52.548;13.406;2022-12-29T10:43:56;15.60;60.10
75517;DHT22;64097;52.548;13.406;2022-12-29T10:46:25;15.70;60.10
75517;DHT22;64097;52.548;13.406;2022-12-29T10:48:53;15.70;60.00
75517;DHT22;64097;52.548;13.406;2022-12-29T10:51:25;15.80;59.90
75517;DHT22;64097;52.548;13.406;2022-12-29T10:53:58;15.80;59.80
75517;DHT22;64097;52.548;13.406;2022-12-29T10:56:31;15.80;59.70
75517;DHT22;64097;52.548;13.406;2022-12-29T10:59:10;15.90;59.80
75517;DHT22;64097;52.548;13.406;2022-12-29T11:01:46;15.90;59.50
75517;DHT22;64097;52.548;13.406;2022-12-29T11:06:59;16.00;59.40
75517;DHT22;64097;52.548;13.406;2022-12-29T11:09:31;16.00;59.40
75517;DHT22;64097;52.548;13.406;2022-12-29T11:11:58;16.10;59.40
75517;DHT22;64097;52.548;13.406;2022-12-29T11:14:29;16.10;59.30
75517;DHT22;64097;52.548;13.406;2022-12-29T11:17:03;16.10;59.10
75517;DHT22;64097;52.548;13.406;2022-12-29T11:19:32;16.10;59.10
75517;DHT22;64097;52.548;13.406;2022-12-29T11:24:46;16.20;59.00
75517;DHT22;64097;52.548;13.406;2022-12-29T11:27:21;16.20;58.70
75517;DHT22;64097;52.548;13.406;2022-12-29T11:29:52;16.20;58.80
75517;DHT22;64097;52.548;13.406;2022-12-29T11:32:26;16.20;58.90
75517;DHT22;64097;52.548;13.406;2022-12-29T11:34:52;16.30;58.80
75517;DHT22;64097;52.548;13.406;2022-12-29T11:37:21;16.30;58.80
75517;DHT22;64097;52.548;13.406;2022-12-29T11:40:01;16.30;58.70
75517;DHT22;64097;52.548;13.406;2022-12-29T11:42:43;16.30;58.80
75517;DHT22;64097;52.548;13.406;2022-12-29T11:47:59;16.40;59.00
75517;DHT22;64097;52.548;13.406;2022-12-29T11:50:29;16.40;59.10
75517;DHT22;64097;52.548;13.406;2022-12-29T11:55:56;16.40;59.20
75517;DHT22;64097;52.548;13.406;2022-12-29T11:58:30;16.40;59.30
75517;DHT22;64097;52.548;13.406;2022-12-29T12:01:03;16.40;59.30
75517;DHT22;64097;52.548;13.406;2022-12-29T12:03:32;16.40;59.20
75517;DHT22;64097;52.548;13.406;2022-12-29T12:06:01;16.40;59.10
75517;DHT22;64097;52.548;13.406;2022-12-29T12:08:51;16.40;59.60
75517;DHT22;64097;52.548;13.406;2022-12-29T12:11:22;16.40;59.90
75517;DHT22;64097;52.548;13.406;2022-12-29T12:14:04;16.40;60.40
75517;DHT22;64097;52.548;13.406;2022-12-29T12:16:39;16.30;60.80
75517;DHT22;64097;52.548;13.406;2022-12-29T12:22:41;16.20;61.30
75517;DHT22;64097;52.548;13.406;2022-12-29T12:25:18;16.20;61.60
75517;DHT22;64097;52.548;13.406;2022-12-29T12:28:28;16.10;61.70
75517;DHT22;64097;52.548;13.406;2022-12-29T12:30:55;16.10;62.10
75517;DHT22;64097;52.548;13.406;2022-12-29T12:33:37;16.00;61.90
75517;DHT22;64097;52.548;13.406;2022-12-29T12:39:23;16.00;62.20
75517;DHT22;64097;52.548;13.406;2022-12-29T13:01:24;15.90;61.30
75517;DHT22;64097;52.548;13.406;2022-12-29T13:09:01;15.80;61.20
75517;DHT22;64097;52.548;13.406;2022-12-29T13:11:38;15.80;61.20
75517;DHT22;64097;52.548;13.406;2022-12-29T13:14:31;15.70;61.10
75517;DHT22;64097;52.548;13.406;2022-12-29T13:17:17;15.70;61.30
75517;DHT22;64097;52.548;13.406;2022-12-29T13:22:41;15.60;61.50
75517;DHT22;64097;52.548;13.406;2022-12-29T13:31:00;15.50;62.90
75517;DHT22;64097;52.548;13.406;2022-12-29T13:34:01;15.50;62.30
75517;DHT22;64097;52.548;13.406;2022-12-29T13:39:43;15.40;62.60
75517;DHT22;64097;52.548;13.406;2022-12-29T13:42:11;15.40;62.70
75517;DHT22;64097;52.548;13.406;2022-12-29T13:44:47;15.40;62.80
75517;DHT22;64097;52.548;13.406;2022-12-29T13:50:03;15.30;63.00
